sensor_id;sensor_type;location;lat;lon;timestamp;P1;durP1;ratioP1;P2;durP2;ratioP2
48522;SDS011;34315;50.150;11.070;2022-12-24T00:00:05;8.02;;;2.20;;
48522;SDS011;34315;50.150;11.070;2022-12-24T00:05:07;7.45;;;1.65;;
48522;SDS011;34315;50.150;11.070;2022-12-24T00:10:08;7.60;;;1.73;;
48522;SDS011;34315;50.150;11.070;2022-12-24T00:15:09;4.90;;;1.48;;
48522;SDS011;34315;50.150;11.070;2022-12-24T00:20:09;6.28;;;1.30;;
48522;SDS011;34315;50.150;11.070;2022-12-24T00:25:10;6.18;;;1.52;;
48522;SDS011;34315;50.150;11.070;2022-12-24T00:30:10;7.63;;;1.45;;
48522;SDS011;34315;50.150;11.070;2022-12-24T00:35:11;10.05;;;1.60;;
48522;SDS011;34315;50.150;11.070;2022-12-24T00:40:11;2.83;;;1.20;;
48522;SDS011;34315;50.150;11.070;2022-12-24T00:45:12;9.90;;;1.67;;
48522;SDS011;34315;50.150;11.070;2022-12-24T00:50:12;7.70;;;1.70;;
48522;SDS011;34315;50.150;11.070;2022-12-24T00:55:13;9.70;;;1.52;;
48522;SDS011;34315;50.150;11.070;2022-12-24T01:00:13;8.30;;;1.58;;
48522;SDS011;34315;50.150;11.070;2022-12-24T01:05:16;11.02;;;2.22;;
48522;SDS011;34315;50.150;11.070;2022-12-24T01:10:19;6.50;;;1.77;;
48522;SDS011;34315;50.150;11.070;2022-12-24T01:15:20;7.50;;;1.95;;
48522;SDS011;34315;50.150;11.070;2022-12-24T01:20:20;5.63;;;1.23;;
48522;SDS011;34315;50.150;11.070;2022-12-24T01:25:21;9.90;;;1.80;;
48522;SDS011;34315;50.150;11.070;2022-12-24T01:30:21;7.20;;;1.63;;
48522;SDS011;34315;50.150;11.070;2022-12-24T01:35:21;10.98;;;2.28;;
48522;SDS011;34315;50.150;11.070;2022-12-24T01:40:24;10.65;;;2.28;;
48522;SDS011;34315;50.150;11.070;2022-12-24T01:45:50;9.40;;;1.90;;
48522;SDS011;34315;50.150;11.070;2022-12-24T01:50:53;14.50;;;1.45;;
48522;SDS011;34315;50.150;11.070;2022-12-24T01:55:55;8.50;;;2.00;;
48522;SDS011;34315;50.150;11.070;2022-12-24T02:00:56;4.93;;;1.40;;
48522;SDS011;34315;50.150;11.070;2022-12-24T02:05:57;7.82;;;1.80;;
48522;SDS011;34315;50.150;11.070;2022-12-24T02:10:58;7.45;;;1.13;;
48522;SDS011;34315;50.150;11.070;2022-12-24T02:32:01;5.80;;;2.10;;
48522;SDS011;34315;50.150;11.070;2022-12-24T02:37:06;5.18;;;1.70;;
48522;SDS011;34315;50.150;11.070;2022-12-24T02:42:23;6.47;;;1.85;;
48522;SDS011;34315;50.150;11.070;2022-12-24T02:47:26;7.63;;;2.05;;
48522;SDS011;34315;50.150;11.070;2022-12-24T02:52:34;7.22;;;1.98;;
48522;SDS011;34315;50.150;11.070;2022-12-24T02:57:46;8.68;;;1.90;;
48522;SDS011;34315;50.150;11.070;2022-12-24T03:13:28;6.65;;;2.03;;
48522;SDS011;34315;50.150;11.070;2022-12-24T03:18:28;12.13;;;2.15;;
48522;SDS011;34315;50.150;11.070;2022-12-24T03:23:30;8.98;;;1.63;;
48522;SDS011;34315;50.150;11.070;2022-12-24T03:28:30;9.68;;;1.88;;
48522;SDS011;34315;50.150;11.070;2022-12-24T03:33:30;9.35;;;1.75;;
48522;SDS011;34315;50.150;11.070;2022-12-24T03:38:31;10.50;;;2.55;;
48522;SDS011;34315;50.150;11.070;2022-12-24T03:43:32;6.10;;;1.58;;
48522;SDS011;34315;50.150;11.070;2022-12-24T03:48:33;11.90;;;1.70;;
48522;SDS011;34315;50.150;11.070;2022-12-24T03:53:34;10.00;;;1.75;;
48522;SDS011;34315;50.150;11.070;2022-12-24T03:58:34;6.50;;;1.55;;
48522;SDS011;34315;50.150;11.070;2022-12-24T04:03:36;8.52;;;1.70;;
48522;SDS011;34315;50.150;11.070;2022-12-24T04:08:36;6.68;;;1.73;;
48522;SDS011;34315;50.150;11.070;2022-12-24T04:13:37;8.30;;;1.50;;
48522;SDS011;34315;50.150;11.070;2022-12-24T04:18:38;8.82;;;1.75;;
48522;SDS011;34315;50.150;11.070;2022-12-24T04:23:39;7.43;;;1.60;;
48522;SDS011;34315;50.150;11.070;2022-12-24T04:28:40;7.50;;;1.73;;
48522;SDS011;34315;50.150;11.070;2022-12-24T04:33:41;8.77;;;1.80;;
48522;SDS011;34315;50.150;11.070;2022-12-24T04:38:41;8.30;;;1.80;;
48522;SDS011;34315;50.150;11.070;2022-12-24T04:43:42;11.80;;;1.85;;
48522;SDS011;34315;50.150;11.070;2022-12-24T04:48:43;10.55;;;2.40;;
48522;SDS011;34315;50.150;11.070;2022-12-24T04:53:45;3.45;;;0.88;;
48522;SDS011;34315;50.150;11.070;2022-12-24T04:58:46;6.75;;;1.52;;
48522;SDS011;34315;50.150;11.070;2022-12-24T05:03:46;10.45;;;2.00;;
48522;SDS011;34315;50.150;11.070;2022-12-24T05:08:47;8.40;;;2.10;;
48522;SDS011;34315;50.150;11.070;2022-12-24T05:13:47;9.25;;;1.55;;
48522;SDS011;34315;50.150;11.070;2022-12-24T05:18:48;12.70;;;1.63;;
48522;SDS011;34315;50.150;11.070;2022-12-24T05:23:49;8.93;;;1.70;;
48522;SDS011;34315;50.150;11.070;2022-12-24T05:29:09;8.07;;;1.88;;
48522;SDS011;34315;50.150;11.070;2022-12-24T05:34:13;10.48;;;2.20;;
48522;SDS011;34315;50.150;11.070;2022-12-24T05:39:15;7.60;;;1.50;;
48522;SDS011;34315;50.150;11.070;2022-12-24T05:44:17;9.32;;;1.92;;
48522;SDS011;34315;50.150;11.070;2022-12-24T05:49:17;9.98;;;2.10;;
48522;SDS011;34315;50.150;11.070;2022-12-24T05:54:17;9.32;;;1.90;;
48522;SDS011;34315;50.150;11.070;2022-12-24T05:59:18;10.20;;;2.08;;
48522;SDS011;34315;50.150;11.070;2022-12-24T06:04:18;9.52;;;2.20;;
48522;SDS011;34315;50.150;11.070;2022-12-24T06:09:19;6.57;;;1.70;;
48522;SDS011;34315;50.150;11.070;2022-12-24T06:14:19;10.75;;;1.75;;
48522;SDS011;34315;50.150;11.070;2022-12-24T06:19:19;7.43;;;1.70;;
48522;SDS011;34315;50.150;11.070;2022-12-24T06:24:20;5.88;;;1.20;;
48522;SDS011;34315;50.150;11.070;2022-12-24T06:29:20;9.18;;;1.67;;
48522;SDS011;34315;50.150;11.070;2022-12-24T06:34:20;12.20;;;1.90;;
48522;SDS011;34315;50.150;11.070;2022-12-24T06:39:21;9.60;;;1.48;;
48522;SDS011;34315;50.150;11.070;2022-12-24T06:44:21;6.55;;;1.73;;
48522;SDS011;34315;50.150;11.070;2022-12-24T06:49:22;6.88;;;1.70;;
48522;SDS011;34315;50.150;11.070;2022-12-24T06:54:22;5.43;;;1.58;;
48522;SDS011;34315;50.150;11.070;2022-12-24T06:59:23;8.95;;;1.90;;
48522;SDS011;34315;50.150;11.070;2022-12-24T07:04:23;13.60;;;3.10;;
48522;SDS011;34315;50.150;11.070;2022-12-24T07:09:24;12.60;;;2.53;;
48522;SDS011;34315;50.150;11.070;2022-12-24T07:14:24;8.75;;;1.90;;
48522;SDS011;34315;50.150;11.070;2022-12-24T07:19:24;9.27;;;2.00;;
48522;SDS011;34315;50.150;11.070;2022-12-24T07:24:25;9.68;;;2.20;;
48522;SDS011;34315;50.150;11.070;2022-12-24T07:29:25;11.70;;;1.92;;
48522;SDS011;34315;50.150;11.070;2022-12-24T07:34:26;14.60;;;2.97;;
48522;SDS011;34315;50.150;11.070;2022-12-24T07:39:26;10.45;;;2.72;;
48522;SDS011;34315;50.150;11.070;2022-12-24T07:44:27;10.07;;;2.22;;
48522;SDS011;34315;50.150;11.070;2022-12-24T07:49:27;9.02;;;2.00;;
48522;SDS011;34315;50.150;11.070;2022-12-24T07:54:27;10.93;;;3.15;;
48522;SDS011;34315;50.150;11.070;2022-12-24T07:59:28;11.55;;;2.20;;
48522;SDS011;34315;50.150;11.070;2022-12-24T08:04:30;10.52;;;2.08;;
48522;SDS011;34315;50.150;11.070;2022-12-24T08:09:32;8.38;;;2.22;;
48522;SDS011;34315;50.150;11.070;2022-12-24T08:14:32;7.15;;;1.92;;
48522;SDS011;34315;50.150;11.070;2022-12-24T08:19:33;8.18;;;2.35;;
48522;SDS011;34315;50.150;11.070;2022-12-24T08:24:33;12.48;;;3.00;;
48522;SDS011;34315;50.150;11.070;2022-12-24T08:29:34;10.45;;;2.30;;
48522;SDS011;34315;50.150;11.070;2022-12-24T08:34:34;9.18;;;2.13;;
48522;SDS011;34315;50.150;11.070;2022-12-24T08:39:35;11.77;;;2.88;;
48522;SDS011;34315;50.150;11.070;2022-12-24T08:44:35;7.50;;;2.20;;
48522;SDS011;34315;50.150;11.070;2022-12-24T08:49:35;9.70;;;2.38;;
48522;SDS011;34315;50.150;11.070;2022-12-24T08:54:36;15.45;;;2.92;;
48522;SDS011;34315;50.150;11.070;2022-12-24T08:59:37;12.57;;;2.95;;
48522;SDS011;34315;50.150;11.070;2022-12-24T09:04:38;9.00;;;2.10;;
48522;SDS011;34315;50.150;11.070;2022-12-24T09:09:39;9.52;;;2.22;;
48522;SDS011;34315;50.150;11.070;2022-12-24T09:14:39;10.63;;;2.55;;
48522;SDS011;34315;50.150;11.070;2022-12-24T09:19:40;9.43;;;2.33;;
48522;SDS011;34315;50.150;11.070;2022-12-24T09:24:40;13.60;;;2.70;;
48522;SDS011;34315;50.150;11.070;2022-12-24T09:29:40;11.23;;;3.25;;
48522;SDS011;34315;50.150;11.070;2022-12-24T09:34:41;14.13;;;2.78;;
48522;SDS011;34315;50.150;11.070;2022-12-24T09:39:41;9.23;;;2.63;;
48522;SDS011;34315;50.150;11.070;2022-12-24T09:44:50;8.18;;;2.65;;
48522;SDS011;34315;50.150;11.070;2022-12-24T09:49:58;13.48;;;3.35;;
48522;SDS011;34315;50.150;11.070;2022-12-24T10:00:30;13.90;;;3.17;;
48522;SDS011;34315;50.150;11.070;2022-12-24T10:05:37;7.93;;;2.83;;
48522;SDS011;34315;50.150;11.070;2022-12-24T10:15:56;10.38;;;2.80;;
48522;SDS011;34315;50.150;11.070;2022-12-24T10:26:45;10.63;;;2.47;;
48522;SDS011;34315;50.150;11.070;2022-12-24T10:31:53;10.13;;;2.95;;
48522;SDS011;34315;50.150;11.070;2022-12-24T10:36:56;9.77;;;2.75;;
48522;SDS011;34315;50.150;11.070;2022-12-24T10:41:58;8.38;;;2.58;;
48522;SDS011;34315;50.150;11.070;2022-12-24T10:46:59;9.52;;;2.60;;
48522;SDS011;34315;50.150;11.070;2022-12-24T10:52:08;7.72;;;2.40;;
48522;SDS011;34315;50.150;11.070;2022-12-24T10:57:21;4.28;;;1.52;;
48522;SDS011;34315;50.150;11.070;2022-12-24T11:02:27;10.32;;;1.98;;
48522;SDS011;34315;50.150;11.070;2022-12-24T11:07:35;6.35;;;1.83;;
48522;SDS011;34315;50.150;11.070;2022-12-24T11:12:56;4.68;;;1.20;;
48522;SDS011;34315;50.150;11.070;2022-12-24T11:18:03;4.97;;;1.85;;
48522;SDS011;34315;50.150;11.070;2022-12-24T11:23:12;5.07;;;1.73;;
48522;SDS011;34315;50.150;11.070;2022-12-24T11:28:25;5.07;;;1.85;;
48522;SDS011;34315;50.150;11.070;2022-12-24T11:33:28;6.18;;;2.45;;
48522;SDS011;34315;50.150;11.070;2022-12-24T11:38:30;7.13;;;2.63;;
48522;SDS011;34315;50.150;11.070;2022-12-24T11:43:45;10.30;;;2.80;;
48522;SDS011;34315;50.150;11.070;2022-12-24T11:48:46;7.93;;;3.40;;
48522;SDS011;34315;50.150;11.070;2022-12-24T11:59:13;11.57;;;3.50;;
48522;SDS011;34315;50.150;11.070;2022-12-24T12:04:32;17.42;;;3.72;;
48522;SDS011;34315;50.150;11.070;2022-12-24T12:09:36;14.27;;;4.85;;
48522;SDS011;34315;50.150;11.070;2022-12-24T12:14:45;15.48;;;3.35;;
48522;SDS011;34315;50.150;11.070;2022-12-24T12:19:49;11.48;;;3.05;;
48522;SDS011;34315;50.150;11.070;2022-12-24T12:24:54;11.02;;;3.03;;
48522;SDS011;34315;50.150;11.070;2022-12-24T12:29:57;12.88;;;3.00;;
48522;SDS011;34315;50.150;11.070;2022-12-24T12:35:03;15.18;;;3.05;;
48522;SDS011;34315;50.150;11.070;2022-12-24T12:40:13;11.60;;;2.65;;
48522;SDS011;34315;50.150;11.070;2022-12-24T12:50:24;7.32;;;2.53;;
48522;SDS011;34315;50.150;11.070;2022-12-24T13:02:00;7.95;;;2.45;;
48522;SDS011;34315;50.150;11.070;2022-12-24T13:12:15;13.88;;;2.38;;
48522;SDS011;34315;50.150;11.070;2022-12-24T13:17:41;12.18;;;2.63;;
48522;SDS011;34315;50.150;11.070;2022-12-24T13:22:52;10.23;;;2.78;;
48522;SDS011;34315;50.150;11.070;2022-12-24T13:27:56;10.32;;;3.10;;
48522;SDS011;34315;50.150;11.070;2022-12-24T13:32:56;10.50;;;2.60;;
48522;SDS011;34315;50.150;11.070;2022-12-24T13:38:27;8.77;;;2.28;;
48522;SDS011;34315;50.150;11.070;2022-12-24T13:43:26;12.43;;;2.65;;
48522;SDS011;34315;50.150;11.070;2022-12-24T13:49:21;15.38;;;3.10;;
48522;SDS011;34315;50.150;11.070;2022-12-24T13:54:26;12.90;;;3.40;;
48522;SDS011;34315;50.150;11.070;2022-12-24T13:59:34;17.65;;;3.17;;
48522;SDS011;34315;50.150;11.070;2022-12-24T14:04:35;12.25;;;4.03;;
48522;SDS011;34315;50.150;11.070;2022-12-24T14:09:39;14.87;;;3.00;;
48522;SDS011;34315;50.150;11.070;2022-12-24T14:14:47;10.20;;;2.65;;
48522;SDS011;34315;50.150;11.070;2022-12-24T14:19:55;10.32;;;2.80;;
48522;SDS011;34315;50.150;11.070;2022-12-24T14:25:00;12.23;;;3.92;;
48522;SDS011;34315;50.150;11.070;2022-12-24T14:40:24;16.90;;;4.43;;
48522;SDS011;34315;50.150;11.070;2022-12-24T14:55:52;14.05;;;4.55;;
48522;SDS011;34315;50.150;11.070;2022-12-24T15:00:54;14.77;;;3.85;;
48522;SDS011;34315;50.150;11.070;2022-12-24T15:06:01;16.00;;;4.35;;
48522;SDS011;34315;50.150;11.070;2022-12-24T15:11:04;14.98;;;3.78;;
48522;SDS011;34315;50.150;11.070;2022-12-24T15:16:07;17.98;;;5.25;;
48522;SDS011;34315;50.150;11.070;2022-12-24T15:21:13;12.02;;;4.00;;
48522;SDS011;34315;50.150;11.070;2022-12-24T15:26:20;14.23;;;3.65;;
48522;SDS011;34315;50.150;11.070;2022-12-24T15:31:25;15.40;;;4.40;;
48522;SDS011;34315;50.150;11.070;2022-12-24T15:36:27;12.52;;;4.90;;
48522;SDS011;34315;50.150;11.070;2022-12-24T15:41:36;11.40;;;3.67;;
48522;SDS011;34315;50.150;11.070;2022-12-24T15:46:59;13.88;;;4.65;;
48522;SDS011;34315;50.150;11.070;2022-12-24T15:52:04;12.85;;;3.90;;
48522;SDS011;34315;50.150;11.070;2022-12-24T15:57:12;11.27;;;3.47;;
48522;SDS011;34315;50.150;11.070;2022-12-24T16:02:31;11.10;;;3.67;;
48522;SDS011;34315;50.150;11.070;2022-12-24T16:07:40;19.67;;;3.63;;
48522;SDS011;34315;50.150;11.070;2022-12-24T16:18:14;18.65;;;4.07;;
48522;SDS011;34315;50.150;11.070;2022-12-24T16:23:20;16.60;;;3.40;;
48522;SDS011;34315;50.150;11.070;2022-12-24T16:28:22;14.18;;;3.90;;
48522;SDS011;34315;50.150;11.070;2022-12-24T16:33:23;15.90;;;4.40;;
48522;SDS011;34315;50.150;11.070;2022-12-24T16:38:23;18.20;;;4.85;;
48522;SDS011;34315;50.150;11.070;2022-12-24T16:43:23;13.50;;;5.65;;
48522;SDS011;34315;50.150;11.070;2022-12-24T16:48:43;14.88;;;4.85;;
48522;SDS011;34315;50.150;11.070;2022-12-24T16:53:45;17.50;;;4.97;;
48522;SDS011;34315;50.150;11.070;2022-12-24T16:58:45;11.52;;;3.08;;
48522;SDS011;34315;50.150;11.070;2022-12-24T17:03:46;11.63;;;3.75;;
48522;SDS011;34315;50.150;11.070;2022-12-24T17:08:49;13.70;;;3.80;;
48522;SDS011;34315;50.150;11.070;2022-12-24T17:13:50;11.93;;;4.80;;
48522;SDS011;34315;50.150;11.070;2022-12-24T17:18:50;14.20;;;4.15;;
48522;SDS011;34315;50.150;11.070;2022-12-24T17:23:51;14.85;;;5.35;;
48522;SDS011;34315;50.150;11.070;2022-12-24T17:28:52;12.32;;;4.22;;
48522;SDS011;34315;50.150;11.070;2022-12-24T17:33:54;17.35;;;4.57;;
48522;SDS011;34315;50.150;11.070;2022-12-24T17:38:54;15.43;;;3.97;;
48522;SDS011;34315;50.150;11.070;2022-12-24T17:43:54;15.80;;;4.50;;
48522;SDS011;34315;50.150;11.070;2022-12-24T17:48:55;15.73;;;4.07;;
48522;SDS011;34315;50.150;11.070;2022-12-24T17:53:55;14.38;;;4.03;;
48522;SDS011;34315;50.150;11.070;2022-12-24T17:58:56;13.50;;;4.97;;
48522;SDS011;34315;50.150;11.070;2022-12-24T18:03:57;11.40;;;4.25;;
48522;SDS011;34315;50.150;11.070;2022-12-24T18:08:58;13.50;;;3.55;;
48522;SDS011;34315;50.150;11.070;2022-12-24T18:13:59;14.48;;;3.92;;
48522;SDS011;34315;50.150;11.070;2022-12-24T18:19:01;7.88;;;3.72;;
48522;SDS011;34315;50.150;11.070;2022-12-24T18:24:03;18.15;;;5.30;;
48522;SDS011;34315;50.150;11.070;2022-12-24T18:29:03;10.88;;;4.35;;
48522;SDS011;34315;50.150;11.070;2022-12-24T18:34:06;12.55;;;4.78;;
48522;SDS011;34315;50.150;11.070;2022-12-24T18:39:07;17.65;;;6.88;;
48522;SDS011;34315;50.150;11.070;2022-12-24T18:44:07;18.05;;;7.10;;
48522;SDS011;34315;50.150;11.070;2022-12-24T18:49:09;19.50;;;6.10;;
48522;SDS011;34315;50.150;11.070;2022-12-24T18:54:10;17.83;;;6.35;;
48522;SDS011;34315;50.150;11.070;2022-12-24T18:59:10;14.88;;;5.20;;
48522;SDS011;34315;50.150;11.070;2022-12-24T19:04:11;19.25;;;6.22;;
48522;SDS011;34315;50.150;11.070;2022-12-24T19:09:14;22.20;;;5.97;;
48522;SDS011;34315;50.150;11.070;2022-12-24T19:14:14;16.60;;;5.60;;
48522;SDS011;34315;50.150;11.070;2022-12-24T19:19:14;20.23;;;6.28;;
48522;SDS011;34315;50.150;11.070;2022-12-24T19:24:15;12.23;;;5.93;;
48522;SDS011;34315;50.150;11.070;2022-12-24T19:29:15;17.33;;;6.97;;
48522;SDS011;34315;50.150;11.070;2022-12-24T19:34:16;18.80;;;6.72;;
48522;SDS011;34315;50.150;11.070;2022-12-24T19:39:16;21.88;;;6.75;;
48522;SDS011;34315;50.150;11.070;2022-12-24T19:44:16;20.85;;;7.20;;
48522;SDS011;34315;50.150;11.070;2022-12-24T19:49:17;21.85;;;6.88;;
48522;SDS011;34315;50.150;11.070;2022-12-24T19:54:17;12.68;;;6.43;;
48522;SDS011;34315;50.150;11.070;2022-12-24T19:59:18;15.50;;;6.18;;
48522;SDS011;34315;50.150;11.070;2022-12-24T20:04:18;11.43;;;6.30;;
48522;SDS011;34315;50.150;11.070;2022-12-24T20:09:20;23.75;;;6.93;;
48522;SDS011;34315;50.150;11.070;2022-12-24T20:14:21;9.50;;;4.95;;
48522;SDS011;34315;50.150;11.070;2022-12-24T20:19:21;13.93;;;5.35;;
48522;SDS011;34315;50.150;11.070;2022-12-24T20:24:22;18.55;;;5.22;;
48522;SDS011;34315;50.150;11.070;2022-12-24T20:29:22;18.90;;;6.40;;
48522;SDS011;34315;50.150;11.070;2022-12-24T20:34:23;17.30;;;6.63;;
48522;SDS011;34315;50.150;11.070;2022-12-24T20:39:23;15.63;;;6.40;;
48522;SDS011;34315;50.150;11.070;2022-12-24T20:44:24;15.63;;;6.20;;
48522;SDS011;34315;50.150;11.070;2022-12-24T20:49:25;22.50;;;7.25;;
48522;SDS011;34315;50.150;11.070;2022-12-24T20:54:25;23.85;;;8.07;;
48522;SDS011;34315;50.150;11.070;2022-12-24T20:59:25;25.05;;;10.40;;
48522;SDS011;34315;50.150;11.070;2022-12-24T21:04:26;22.30;;;7.53;;
48522;SDS011;34315;50.150;11.070;2022-12-24T21:09:26;20.13;;;8.55;;
48522;SDS011;34315;50.150;11.070;2022-12-24T21:14:27;19.90;;;7.32;;
48522;SDS011;34315;50.150;11.070;2022-12-24T21:19:27;19.60;;;7.40;;
48522;SDS011;34315;50.150;11.070;2022-12-24T21:24:27;21.90;;;9.85;;
48522;SDS011;34315;50.150;11.070;2022-12-24T21:29:28;19.80;;;6.88;;
48522;SDS011;34315;50.150;11.070;2022-12-24T21:34:28;31.83;;;14.98;;
48522;SDS011;34315;50.150;11.070;2022-12-24T21:39:29;23.90;;;10.77;;
48522;SDS011;34315;50.150;11.070;2022-12-24T21:44:29;16.83;;;7.78;;
48522;SDS011;34315;50.150;11.070;2022-12-24T21:49:29;21.38;;;8.25;;
48522;SDS011;34315;50.150;11.070;2022-12-24T21:54:49;23.50;;;10.00;;
48522;SDS011;34315;50.150;11.070;2022-12-24T21:59:50;23.27;;;9.90;;
48522;SDS011;34315;50.150;11.070;2022-12-24T22:04:51;16.75;;;8.98;;
48522;SDS011;34315;50.150;11.070;2022-12-24T22:09:51;18.42;;;7.80;;
48522;SDS011;34315;50.150;11.070;2022-12-24T22:15:10;16.17;;;7.20;;
48522;SDS011;34315;50.150;11.070;2022-12-24T22:20:11;18.13;;;8.48;;
48522;SDS011;34315;50.150;11.070;2022-12-24T22:25:11;24.30;;;10.70;;
48522;SDS011;34315;50.150;11.070;2022-12-24T22:30:12;18.88;;;10.35;;
48522;SDS011;34315;50.150;11.070;2022-12-24T22:35:12;21.35;;;9.23;;
48522;SDS011;34315;50.150;11.070;2022-12-24T22:40:13;21.50;;;9.93;;
48522;SDS011;34315;50.150;11.070;2022-12-24T22:45:13;24.25;;;9.93;;
48522;SDS011;34315;50.150;11.070;2022-12-24T22:50:14;19.58;;;9.40;;
48522;SDS011;34315;50.150;11.070;2022-12-24T22:55:14;20.85;;;9.88;;
48522;SDS011;34315;50.150;11.070;2022-12-24T23:00:17;16.70;;;7.45;;
48522;SDS011;34315;50.150;11.070;2022-12-24T23:05:36;19.10;;;7.50;;
48522;SDS011;34315;50.150;11.070;2022-12-24T23:10:37;18.13;;;7.60;;
48522;SDS011;34315;50.150;11.070;2022-12-24T23:15:38;21.15;;;7.68;;
48522;SDS011;34315;50.150;11.070;2022-12-24T23:20:39;15.45;;;6.80;;
48522;SDS011;34315;50.150;11.070;2022-12-24T23:25:42;14.88;;;7.63;;
48522;SDS011;34315;50.150;11.070;2022-12-24T23:30:42;23.08;;;10.23;;
48522;SDS011;34315;50.150;11.070;2022-12-24T23:35:42;21.35;;;8.63;;
48522;SDS011;34315;50.150;11.070;2022-12-24T23:40:43;20.23;;;8.38;;
48522;SDS011;34315;50.150;11.070;2022-12-24T23:45:47;17.52;;;7.97;;
48522;SDS011;34315;50.150;11.070;2022-12-24T23:50:48;17.00;;;9.07;;
48522;SDS011;34315;50.150;11.070;2022-12-24T23:55:48;16.13;;;8.25;;
